Time;durP1;ratioP1;P1;durP2;ratioP2;P2;SDS_P1;SDS_P2;PMS_P1;PMS_P2;Temp;Humidity;BMP_temperature;BMP_pressure;BME280_temperature;BME280_humidity;BME280_pressure;Samples;Min_cycle;Max_cycle;Signal;HPM_P1;HPM_P2
2021/04/12 00:02:03;;;;;;;7.55;3.17;;;;;;;0.10;79.92;102225.78;5264760;28;20075;-70
2021/04/12 00:04:49;;;;;;;9.30;3.20;;;;;;;0.12;79.83;102227.44;5265349;28;20429;-67
2021/04/12 00:07:27;;;;;;;8.52;3.28;;;;;;;0.10;79.97;102225.78;5267300;28;20032;-67
2021/04/12 00:10:24;;;;;;;5.75;3.10;;;;;;;0.12;79.27;102235.19;5265568;28;20024;-68
2021/04/12 00:12:59;;;;;;;6.88;3.20;;;;;;;0.02;79.79;102231.06;5254584;28;20114;-68
2021/04/12 00:15:48;;;;;;;5.65;3.08;;;;;;;0.03;79.68;102235.34;5264888;28;20174;-70
2021/04/12 00:18:25;;;;;;;7.75;3.53;;;;;;;-0.03;79.87;102240.63;5264108;28;20509;-67
2021/04/12 00:20:59;;;;;;;7.47;3.00;;;;;;;-0.11;80.38;102235.59;5262472;28;20382;-68
2021/04/12 00:23:43;;;;;;;5.55;3.00;;;;;;;-0.05;80.28;102243.19;5265097;28;20060;-68
2021/04/12 00:26:32;;;;;;;9.25;3.30;;;;;;;-0.05;80.38;102252.66;5266124;28;20036;-68
2021/04/12 00:29:09;;;;;;;7.32;2.75;;;;;;;-0.06;80.40;102249.25;5265063;28;20036;-67
2021/04/12 00:31:48;;;;;;;7.10;3.20;;;;;;;-0.07;80.33;102244.13;5263188;28;20421;-67
2021/04/12 00:34:27;;;;;;;7.03;3.15;;;;;;;-0.11;80.75;102245.06;5265547;28;20064;-69
2021/04/12 00:37:05;;;;;;;8.50;3.17;;;;;;;-0.10;80.61;102254.47;5264709;28;20048;-67
2021/04/12 00:39:45;;;;;;;8.05;3.20;;;;;;;-0.10;80.81;102249.31;5243314;28;20040;-68
2021/04/12 00:42:31;;;;;;;8.43;3.13;;;;;;;-0.01;81.00;102249.16;5265108;28;20157;-68
2021/04/12 00:45:14;;;;;;;4.78;3.03;;;;;;;-0.05;81.14;102250.94;5264385;28;20108;-67
2021/04/12 00:47:45;;;;;;;6.97;3.53;;;;;;;-0.05;81.56;102252.66;5264055;28;20021;-67
2021/04/12 00:50:29;;;;;;;9.43;3.70;;;;;;;-0.07;81.27;102254.44;5265453;28;20029;-70
2021/04/12 00:53:45;;;;;;;8.65;3.17;;;;;;;-0.03;80.97;102251.75;5267064;28;20033;-67
2021/04/12 00:56:27;;;;;;;7.53;3.20;;;;;;;-0.18;80.95;102246.88;5195259;28;20041;-69
2021/04/12 00:59:28;;;;;;;7.45;2.92;;;;;;;-0.10;80.77;102260.47;5267633;28;20039;-72
2021/04/12 01:02:37;;;;;;;8.13;3.03;;;;;;;-0.13;80.82;102264.84;5270033;28;20158;-71
2021/04/12 01:05:47;;;;;;;5.57;3.08;;;;;;;-0.17;81.38;102263.19;5264862;28;20051;-72
2021/04/12 01:08:37;;;;;;;9.13;3.20;;;;;;;-0.18;81.62;102264.91;5267553;28;20052;-67
2021/04/12 01:11:45;;;;;;;9.48;3.53;;;;;;;-0.19;82.08;102262.34;5252181;28;20115;-69
2021/04/12 01:14:38;;;;;;;8.35;3.53;;;;;;;-0.22;81.82;102263.28;5268168;28;20033;-68
2021/04/12 01:17:27;;;;;;;6.57;3.17;;;;;;;-0.27;82.72;102262.47;5267979;28;20425;-68
2021/04/12 01:20:07;;;;;;;9.98;3.75;;;;;;;-0.27;82.72;102268.47;5267390;28;20048;-68
2021/04/12 01:22:56;;;;;;;7.20;3.33;;;;;;;-0.23;82.47;102268.44;5267885;28;20098;-67
2021/04/12 01:26:02;;;;;;;5.07;3.70;;;;;;;-0.23;81.78;102269.28;5270815;28;20039;-67
2021/04/12 01:29:01;;;;;;;7.65;3.38;;;;;;;-0.26;82.48;102267.63;5267366;28;20485;-68
2021/04/12 01:32:04;;;;;;;9.57;3.45;;;;;;;-0.23;82.38;102273.59;5267626;28;20036;-68
2021/04/12 01:34:59;;;;;;;9.37;3.97;;;;;;;-0.28;82.85;102277.09;5266257;28;20032;-67
2021/04/12 01:37:52;;;;;;;11.27;3.60;;;;;;;-0.21;82.49;102274.41;5266360;28;20057;-67
2021/04/12 01:40:50;;;;;;;7.93;3.10;;;;;;;-0.30;83.15;102278.00;5266313;28;20075;-67
2021/04/12 01:43:33;;;;;;;6.90;3.40;;;;;;;-0.31;82.65;102277.13;5267113;28;20166;-70
2021/04/12 01:46:26;;;;;;;8.05;3.40;;;;;;;-0.27;82.44;102273.63;5268356;28;20024;-69
2021/04/12 01:49:27;;;;;;;8.60;3.42;;;;;;;-0.21;82.24;102283.00;5267140;28;20382;-70
2021/04/12 01:52:20;;;;;;;9.50;3.80;;;;;;;-0.30;83.15;102273.72;5242812;28;20545;-69
2021/04/12 01:55:03;;;;;;;7.85;3.65;;;;;;;-0.26;82.18;102289.97;5262746;28;20107;-68
2021/04/12 01:57:41;;;;;;;10.05;3.65;;;;;;;-0.37;82.28;102287.56;5267225;28;20032;-69
2021/04/12 02:00:25;;;;;;;5.78;3.40;;;;;;;-0.28;82.32;102292.53;5242668;28;20114;-70
2021/04/12 02:03:21;;;;;;;5.63;3.63;;;;;;;-0.28;82.74;102296.84;5262482;28;20040;-67
2021/04/12 02:06:12;;;;;;;8.95;3.45;;;;;;;-0.37;82.59;102295.28;5263280;28;20060;-68
2021/04/12 02:09:11;;;;;;;7.20;3.67;;;;;;;-0.35;83.25;102290.09;5266637;28;20028;-67
2021/04/12 02:12:12;;;;;;;6.30;3.25;;;;;;;-0.33;82.77;102291.78;5267113;28;20029;-69
2021/04/12 02:15:01;;;;;;;6.60;3.47;;;;;;;-0.40;82.86;102299.63;5227257;28;20080;-69
2021/04/12 02:18:00;;;;;;;4.57;3.05;;;;;;;-0.40;82.41;102305.63;5268640;28;20043;-67
2021/04/12 02:20:57;;;;;;;4.85;3.58;;;;;;;-0.40;82.79;102309.91;5265646;28;20071;-68
2021/04/12 02:23:48;;;;;;;4.70;2.88;;;;;;;-0.38;83.40;102303.00;5268498;28;20033;-69
2021/04/12 02:26:20;;;;;;;7.30;3.33;;;;;;;-0.46;83.25;102317.72;5267288;28;20039;-69
2021/04/12 02:29:09;;;;;;;4.95;3.10;;;;;;;-0.40;83.17;102312.50;5267669;28;20479;-67
2021/04/12 02:31:51;;;;;;;9.45;3.40;;;;;;;-0.56;83.03;102310.16;5265578;28;20037;-67
2021/04/12 02:34:25;;;;;;;5.68;2.80;;;;;;;-0.52;83.21;102323.84;5267412;28;20040;-70
2021/04/12 02:37:06;;;;;;;7.25;2.90;;;;;;;-0.52;83.41;102321.25;5262004;28;20052;-69
2021/04/12 02:40:12;;;;;;;9.68;3.60;;;;;;;-0.48;83.22;102322.06;5268042;28;20394;-67
2021/04/12 02:43:07;;;;;;;5.45;3.33;;;;;;;-0.58;83.08;102326.50;5252323;28;20033;-70
2021/04/12 02:46:12;;;;;;;5.88;3.63;;;;;;;-0.51;83.52;102341.81;5265564;28;20378;-68
2021/04/12 02:48:57;;;;;;;8.57;3.55;;;;;;;-0.52;83.84;102334.13;5266751;28;20401;-68
2021/04/12 02:51:59;;;;;;;7.40;3.47;;;;;;;-0.48;83.92;102332.38;5242852;28;20024;-68
2021/04/12 02:54:50;;;;;;;5.15;3.03;;;;;;;-0.50;84.02;102340.09;5267250;28;20482;-68
2021/04/12 02:57:40;;;;;;;6.88;3.30;;;;;;;-0.52;83.68;102339.28;5267154;28;20028;-69
2021/04/12 03:00:20;;;;;;;7.07;3.75;;;;;;;-0.54;84.43;102338.44;5265015;28;21652;-68
2021/04/12 03:02:57;;;;;;;6.78;3.90;;;;;;;-0.54;84.16;102351.31;5266555;28;20348;-67
2021/04/12 03:06:18;;;;;;;5.40;3.50;;;;;;;-0.46;84.64;102349.47;5264329;28;20044;-68
2021/04/12 03:09:28;;;;;;;8.23;3.72;;;;;;;-0.41;84.74;102352.00;5266395;28;20101;-68
2021/04/12 03:12:31;;;;;;;10.10;3.83;;;;;;;-0.40;84.75;102359.69;5264217;28;20165;-68
2021/04/12 03:15:40;;;;;;;6.03;3.80;;;;;;;-0.33;85.00;102352.72;5268156;28;20035;-67
2021/04/12 03:18:28;;;;;;;8.43;4.15;;;;;;;-0.33;85.06;102355.31;5270107;28;20417;-68
2021/04/12 03:21:25;;;;;;;7.40;4.80;;;;;;;-0.31;85.07;102354.38;5266868;28;20491;-69
2021/04/12 03:24:17;;;;;;;6.32;3.85;;;;;;;-0.26;84.49;102354.34;5266574;28;20394;-68
2021/04/12 03:26:57;;;;;;;9.38;3.95;;;;;;;-0.25;85.48;102359.47;5268853;28;20028;-71
2021/04/12 03:29:31;;;;;;;8.48;3.95;;;;;;;-0.24;84.75;102360.31;5268431;28;20032;-71
2021/04/12 03:32:24;;;;;;;7.35;3.95;;;;;;;-0.21;84.85;102362.00;5270196;28;20039;-71
2021/04/12 03:35:06;;;;;;;5.72;3.92;;;;;;;-0.19;84.67;102361.09;5267991;28;20478;-69
2021/04/12 03:37:40;;;;;;;7.78;4.45;;;;;;;-0.19;85.25;102358.53;5266461;28;20521;-68
2021/04/12 03:40:12;;;;;;;11.85;4.32;;;;;;;-0.19;84.75;102360.22;5245527;28;20044;-68
2021/04/12 03:43:13;;;;;;;7.77;3.70;;;;;;;-0.07;85.29;102367.78;5268287;28;20428;-68
2021/04/12 03:46:11;;;;;;;5.93;3.50;;;;;;;-0.04;85.35;102373.75;5265736;28;20757;-70
2021/04/12 03:49:09;;;;;;;7.43;3.90;;;;;;;-0.05;84.72;102373.75;5264206;28;20089;-68
2021/04/12 03:52:07;;;;;;;9.20;3.97;;;;;;;-0.01;85.57;102378.81;5205863;28;20257;-68
2021/04/12 03:54:48;;;;;;;7.30;4.43;;;;;;;0.06;85.13;102373.56;5264010;28;20371;-67
2021/04/12 03:57:47;;;;;;;7.07;4.07;;;;;;;0.09;85.44;102378.69;5265358;28;20036;-68
2021/04/12 04:00:43;;;;;;;7.57;4.40;;;;;;;0.13;85.18;102385.50;5260354;28;20028;-68
2021/04/12 04:03:28;;;;;;;6.32;4.10;;;;;;;0.10;85.15;102390.69;5266362;28;20093;-68
2021/04/12 04:06:19;;;;;;;7.78;4.43;;;;;;;0.09;85.56;102387.25;5260320;28;20317;-67
2021/04/12 04:09:28;;;;;;;7.68;4.15;;;;;;;0.12;85.00;102387.22;5243863;28;20821;-68
2021/04/12 04:12:30;;;;;;;10.18;4.20;;;;;;;0.08;84.65;102393.31;5265602;28;20506;-69
2021/04/12 04:15:29;;;;;;;6.82;4.10;;;;;;;0.09;84.89;102384.69;5262870;28;20525;-69
2021/04/12 04:18:23;;;;;;;7.18;3.90;;;;;;;0.08;84.93;102390.72;5250997;28;20489;-70
2021/04/12 04:21:09;;;;;;;8.32;4.47;;;;;;;0.04;84.96;102395.94;5264208;28;20021;-71
2021/04/12 04:23:59;;;;;;;8.77;3.92;;;;;;;0.03;85.27;102392.50;5265250;28;20537;-69
2021/04/12 04:26:47;;;;;;;5.85;4.00;;;;;;;0.04;84.92;102389.06;5265201;28;20482;-68
2021/04/12 04:29:27;;;;;;;6.00;3.78;;;;;;;0.02;85.32;102393.38;5263378;28;20021;-69
2021/04/12 04:32:38;;;;;;;8.18;3.85;;;;;;;0.04;84.97;102395.94;5264325;28;20047;-71
2021/04/12 04:35:47;;;;;;;6.32;3.75;;;;;;;0.07;84.66;102396.72;5264208;28;20031;-68
2021/04/12 04:38:56;;;;;;;5.95;3.88;;;;;;;0.07;85.54;102403.63;5265682;28;20102;-71
2021/04/12 04:41:58;;;;;;;7.13;3.75;;;;;;;0.05;85.35;102397.66;5264788;28;20025;-70
2021/04/12 04:44:56;;;;;;;9.02;3.92;;;;;;;0.07;85.74;102395.88;5264804;28;20473;-68
2021/04/12 04:47:52;;;;;;;9.60;4.30;;;;;;;0.03;85.76;102397.66;5262654;28;20013;-67
2021/04/12 04:51:00;;;;;;;10.07;3.53;;;;;;;0.06;85.50;102400.19;5264748;28;20043;-67
2021/04/12 04:54:05;;;;;;;6.65;3.70;;;;;;;-0.01;85.58;102401.16;5266561;28;20028;-67
2021/04/12 04:57:11;;;;;;;4.70;3.60;;;;;;;0.02;84.97;102408.00;5262390;28;20032;-67
2021/04/12 04:59:59;;;;;;;7.57;4.20;;;;;;;-0.06;85.77;102405.53;5265495;28;20500;-67
2021/04/12 05:02:55;;;;;;;9.30;4.22;;;;;;;-0.02;85.84;102407.19;5266224;28;20037;-68
2021/04/12 05:05:57;;;;;;;4.32;3.03;;;;;;;0.04;85.35;102407.09;5262933;28;20031;-68
2021/04/12 05:09:08;;;;;;;8.85;3.88;;;;;;;0.01;85.45;102406.31;5266561;28;20028;-68
2021/04/12 05:12:07;;;;;;;6.60;3.28;;;;;;;0.03;85.38;102412.28;5264853;28;20029;-69
2021/04/12 05:15:17;;;;;;;8.70;3.20;;;;;;;0.07;85.54;102425.06;5252707;28;20024;-68
2021/04/12 05:18:26;;;;;;;6.38;3.03;;;;;;;0.16;85.72;102424.09;5263496;28;20086;-68
2021/04/12 05:21:31;;;;;;;6.32;2.97;;;;;;;0.15;85.30;102430.97;5262040;28;20104;-69
2021/04/12 05:24:27;;;;;;;4.60;3.40;;;;;;;0.21;85.66;102432.59;5263729;28;20024;-68
2021/04/12 05:27:18;;;;;;;4.82;3.17;;;;;;;0.26;85.25;102438.50;5265145;28;20385;-69
2021/04/12 05:30:22;;;;;;;5.32;3.22;;;;;;;0.33;85.00;102442.69;5263575;28;20382;-69
2021/04/12 05:33:09;;;;;;;4.72;3.53;;;;;;;0.33;85.19;102444.44;5260669;28;20029;-68
2021/04/12 05:36:06;;;;;;;7.35;3.33;;;;;;;0.32;85.54;102437.59;5265147;28;20095;-68
2021/04/12 05:39:01;;;;;;;6.18;3.38;;;;;;;0.43;85.46;102453.72;5270357;28;20020;-69
2021/04/12 05:42:04;;;;;;;9.20;4.07;;;;;;;0.46;85.74;102453.69;5268467;28;20036;-69
2021/04/12 05:44:57;;;;;;;8.38;3.78;;;;;;;0.46;85.68;102458.84;5268679;28;20028;-68
2021/04/12 05:48:05;;;;;;;5.53;3.28;;;;;;;0.55;85.51;102461.25;5266945;28;20056;-69
2021/04/12 05:50:58;;;;;;;4.13;3.30;;;;;;;0.55;85.23;102466.41;5268816;28;20062;-69
2021/04/12 05:54:00;;;;;;;6.57;3.30;;;;;;;0.63;85.66;102466.28;5267401;28;20036;-68
2021/04/12 05:57:10;;;;;;;5.10;3.60;;;;;;;0.62;85.06;102462.84;5267897;28;20059;-69
2021/04/12 06:00:11;;;;;;;7.20;3.33;;;;;;;0.63;85.34;102467.13;5265773;28;20052;-69
2021/04/12 06:03:30;;;;;;;5.93;3.78;;;;;;;0.72;85.43;102468.72;5262684;28;20033;-69
2021/04/12 06:06:20;;;;;;;6.32;3.70;;;;;;;0.75;85.13;102476.38;5262730;28;20147;-69
2021/04/12 06:09:10;;;;;;;4.63;3.38;;;;;;;0.70;85.74;102471.28;5265759;28;20033;-69
2021/04/12 06:12:06;;;;;;;5.30;3.42;;;;;;;0.79;85.42;102480.59;5257547;28;20024;-69
2021/04/12 06:15:01;;;;;;;7.40;3.83;;;;;;;0.86;85.58;102479.59;5266097;28;20101;-69
2021/04/12 06:17:40;;;;;;;8.52;3.83;;;;;;;0.87;85.49;102489.06;5266102;28;20087;-69
2021/04/12 06:20:56;;;;;;;7.68;4.15;;;;;;;0.97;85.52;102492.31;5266432;28;20079;-69
2021/04/12 06:23:37;;;;;;;6.72;3.53;;;;;;;1.05;85.46;102492.19;5267178;28;20028;-69
2021/04/12 06:26:30;;;;;;;7.68;4.50;;;;;;;1.15;85.36;102496.31;5262648;28;20761;-68
2021/04/12 06:29:28;;;;;;;4.80;3.38;;;;;;;1.26;85.33;102496.09;5265602;28;20464;-68
2021/04/12 06:31:59;;;;;;;7.07;3.17;;;;;;;1.33;84.51;102498.53;5260945;28;20052;-68
2021/04/12 06:35:19;;;;;;;7.57;3.90;;;;;;;1.48;84.37;102510.28;5253980;28;20037;-68
2021/04/12 06:38:18;;;;;;;5.45;2.95;;;;;;;1.59;84.50;102510.91;5260058;28;20040;-68
2021/04/12 06:41:24;;;;;;;5.57;3.33;;;;;;;1.75;83.73;102505.44;5262743;28;20021;-68
2021/04/12 06:44:07;;;;;;;7.25;3.50;;;;;;;1.89;83.42;102511.13;5263959;28;20139;-68
2021/04/12 06:47:00;;;;;;;3.92;2.70;;;;;;;2.00;83.27;102516.91;5244518;28;20108;-68
2021/04/12 06:49:56;;;;;;;5.07;3.00;;;;;;;2.21;82.98;102518.19;5264036;28;20036;-68
2021/04/12 06:52:46;;;;;;;7.60;2.83;;;;;;;2.38;82.53;102516.03;5262280;28;20028;-67
2021/04/12 06:55:20;;;;;;;5.13;2.67;;;;;;;2.50;81.36;102522.69;5263434;28;20028;-68
2021/04/12 06:58:20;;;;;;;3.35;2.15;;;;;;;2.68;80.27;102522.19;5263344;28;20024;-68
2021/04/12 07:01:10;;;;;;;3.88;1.92;;;;;;;2.77;79.76;102528.91;5263074;28;20032;-67
2021/04/12 07:04:13;;;;;;;3.30;2.25;;;;;;;2.89;78.89;102532.91;5265313;28;20035;-68
2021/04/12 07:07:02;;;;;;;3.53;2.03;;;;;;;3.00;79.15;102530.91;5265043;28;20056;-68
2021/04/12 07:09:40;;;;;;;5.18;2.05;;;;;;;3.23;78.96;102539.81;5267166;28;20059;-68
2021/04/12 07:12:36;;;;;;;4.93;2.25;;;;;;;3.42;78.48;102543.59;5262991;28;20573;-68
2021/04/12 07:15:35;;;;;;;4.43;2.47;;;;;;;3.61;78.05;102542.19;5264098;28;20068;-68
2021/04/12 07:18:30;;;;;;;5.78;2.35;;;;;;;3.76;77.18;102551.25;5262923;28;20047;-68
2021/04/12 07:21:32;;;;;;;4.22;2.40;;;;;;;3.83;76.93;102549.34;5261520;28;20120;-68
2021/04/12 07:24:25;;;;;;;3.20;2.28;;;;;;;3.81;77.18;102564.09;5264496;28;20029;-68
2021/04/12 07:27:27;;;;;;;5.60;2.92;;;;;;;3.92;78.05;102559.44;5261087;28;20040;-68
2021/04/12 07:30:01;;;;;;;5.38;2.80;;;;;;;3.85;76.09;102558.75;5261347;28;20033;-68
2021/04/12 07:32:51;;;;;;;5.47;2.40;;;;;;;3.95;76.94;102568.88;5246387;28;20115;-68
2021/04/12 07:35:52;;;;;;;4.22;2.70;;;;;;;4.01;75.83;102566.09;5248724;28;20032;-68
2021/04/12 07:39:10;;;;;;;6.03;2.72;;;;;;;4.11;76.07;102568.38;5265427;28;20102;-68
2021/04/12 07:42:16;;;;;;;7.85;3.53;;;;;;;4.27;75.74;102580.88;5264173;28;20078;-68
2021/04/12 07:45:16;;;;;;;7.32;2.97;;;;;;;4.33;75.12;102584.13;5262617;28;20538;-68
2021/04/12 07:48:06;;;;;;;5.20;2.47;;;;;;;4.33;73.79;102584.13;5261895;28;20032;-68
2021/04/12 07:51:04;;;;;;;6.40;2.60;;;;;;;4.42;74.11;102598.56;5259811;28;20017;-68
2021/04/12 07:53:57;;;;;;;7.13;2.08;;;;;;;4.39;73.68;102594.34;5263920;28;20037;-68
2021/04/12 07:56:48;;;;;;;4.70;2.25;;;;;;;4.37;74.13;102600.47;5262026;28;20160;-70
2021/04/12 07:59:47;;;;;;;6.70;2.67;;;;;;;4.30;74.01;102596.34;5262052;28;20111;-69
2021/04/12 08:02:56;;;;;;;8.18;2.75;;;;;;;4.30;73.64;102604.13;5258960;28;20098;-68
2021/04/12 08:05:46;;;;;;;10.10;2.50;;;;;;;4.11;74.41;102619.41;5265682;28;20043;-69
2021/04/12 08:08:45;;;;;;;4.78;2.53;;;;;;;3.76;75.53;102625.59;5262496;28;20538;-68
2021/04/12 08:11:46;;;;;;;5.80;3.60;;;;;;;3.56;76.00;102623.53;5264803;28;20036;-68
2021/04/12 08:14:23;;;;;;;6.80;3.20;;;;;;;3.33;77.51;102631.91;5263701;28;20061;-68
2021/04/12 08:17:33;;;;;;;5.53;3.17;;;;;;;3.45;77.12;102636.78;5252421;28;20119;-67
2021/04/12 08:20:38;;;;;;;4.60;1.88;;;;;;;3.41;77.99;102637.75;5224519;28;20497;-67
2021/04/12 08:23:35;;;;;;;3.30;1.70;;;;;;;3.54;78.98;102635.69;5264417;28;20029;-68
2021/04/12 08:26:09;;;;;;;2.63;1.23;;;;;;;3.78;77.68;102647.13;5258910;28;20016;-68
2021/04/12 08:28:55;;;;;;;2.33;1.20;;;;;;;3.78;75.74;102649.72;5260969;28;20239;-67
2021/04/12 08:32:23;;;;;;;3.50;1.60;;;;;;;3.73;76.22;102636.88;5264226;28;20445;-68
2021/04/12 08:35:32;;;;;;;3.28;1.17;;;;;;;3.51;76.66;102652.16;5262740;28;20140;-68
2021/04/12 08:38:09;;;;;;;3.75;1.60;;;;;;;3.41;78.12;102650.72;5259126;28;20497;-68
2021/04/12 08:41:08;;;;;;;2.50;1.13;;;;;;;3.55;77.20;102658.97;5263285;28;20589;-67
2021/04/12 08:44:12;;;;;;;3.95;1.17;;;;;;;3.34;78.49;102656.94;5262858;28;20059;-68
2021/04/12 08:46:49;;;;;;;;;;;;;;;3.52;77.64;102663.38;5262225;28;20492;-68
2021/04/12 08:49:41;;;;;;;3.35;1.23;;;;;;;3.48;79.68;102656.56;5264673;28;20410;-68
2021/04/12 08:52:50;;;;;;;2.67;1.27;;;;;;;3.66;77.14;102663.88;5260485;28;20402;-68
2021/04/12 08:56:05;;;;;;;2.97;1.10;;;;;;;3.68;77.46;102645.69;5263701;28;20028;-68
2021/04/12 08:59:15;;;;;;;2.83;0.98;;;;;;;3.78;76.50;102645.38;5242903;28;20029;-68
2021/04/12 09:02:15;;;;;;;2.47;1.00;;;;;;;4.01;76.22;102643.88;5223039;28;20056;-69
2021/04/12 09:04:59;;;;;;;4.78;2.38;;;;;;;4.33;75.44;102645.56;5244986;28;20111;-68
2021/04/12 09:08:04;;;;;;;1.45;0.95;;;;;;;4.48;74.51;102639.91;5263941;28;20066;-68
2021/04/12 09:11:15;;;;;;;2.78;1.40;;;;;;;4.88;76.16;102644.69;5265124;28;20033;-69
2021/04/12 09:14:14;;;;;;;1.95;1.08;;;;;;;5.03;74.17;102652.88;5265727;28;20355;-70
2021/04/12 09:17:25;;;;;;;3.67;1.30;;;;;;;5.23;72.14;102650.50;5254723;28;20028;-69
2021/04/12 09:20:07;;;;;;;3.15;1.40;;;;;;;5.04;70.08;102652.88;5253106;28;20047;-69
2021/04/12 09:22:57;;;;;;;4.18;1.50;;;;;;;5.13;71.44;102652.53;5263676;28;20394;-68
2021/04/12 09:25:44;;;;;;;2.65;1.63;;;;;;;5.29;72.97;102652.88;5260975;28;20112;-69
2021/04/12 09:28:34;;;;;;;2.80;1.30;;;;;;;5.30;70.06;102653.72;5266003;28;20473;-68
2021/04/12 09:31:42;;;;;;;8.05;1.65;;;;;;;5.42;71.13;102655.94;5264262;28;20410;-68
2021/04/12 09:34:38;;;;;;;2.97;1.58;;;;;;;5.47;71.14;102651.41;5264278;28;20044;-69
2021/04/12 09:37:47;;;;;;;2.45;1.58;;;;;;;5.87;72.80;102647.38;5263946;28;20052;-68
2021/04/12 09:40:58;;;;;;;3.53;1.50;;;;;;;6.03;70.04;102651.19;5263960;28;20389;-68
2021/04/12 09:43:52;;;;;;;3.80;1.50;;;;;;;6.12;69.05;102643.94;5265375;28;20052;-68
2021/04/12 09:46:56;;;;;;;3.70;1.40;;;;;;;6.41;68.05;102653.25;5264130;28;20033;-68
2021/04/12 09:49:57;;;;;;;1.95;1.38;;;;;;;6.41;66.24;102656.72;5169263;28;20041;-68
2021/04/12 09:52:45;;;;;;;4.43;1.70;;;;;;;6.48;65.46;102660.78;5265537;28;20314;-69
2021/04/12 09:55:48;;;;;;;4.43;1.50;;;;;;;6.89;66.89;102662.66;5263181;28;20108;-68
2021/04/12 09:58:31;;;;;;;1.95;1.15;;;;;;;6.88;64.65;102664.41;5263327;28;20040;-69
2021/04/12 10:01:34;;;;;;;3.45;1.23;;;;;;;6.54;64.42;102686.56;5264810;28;20025;-68
2021/04/12 10:04:32;;;;;;;2.83;0.93;;;;;;;6.08;64.95;102684.84;5256245;28;20055;-69
2021/04/12 10:07:41;;;;;;;2.90;0.90;;;;;;;5.36;67.75;102714.16;5238781;28;20044;-68
2021/04/12 10:10:19;;;;;;;2.47;0.90;;;;;;;4.68;70.76;102718.94;5264256;28;20024;-68
2021/04/12 10:13:03;;;;;;;2.60;1.05;;;;;;;4.37;72.44;102718.06;5262717;28;20046;-69
2021/04/12 10:15:40;;;;;;;;;;;;;;;4.55;72.54;102723.66;5264727;28;20482;-68
2021/04/12 10:18:40;;;;;;;2.75;1.15;;;;;;;4.09;73.98;102715.44;5265881;28;19912;-67
2021/04/12 10:21:33;;;;;;;1.95;1.20;;;;;;;3.94;74.86;102715.84;5257293;28;20049;-68
2021/04/12 10:24:17;;;;;;;1.90;1.10;;;;;;;3.86;76.03;102717.75;5264905;28;20493;-67
2021/04/12 10:26:57;;;;;;;3.78;1.40;;;;;;;3.81;76.41;102714.47;5265371;28;20068;-67
2021/04/12 10:29:37;;;;;;;6.40;1.58;;;;;;;3.74;75.38;102724.13;5263951;28;20032;-67
2021/04/12 10:32:17;;;;;;;4.57;1.48;;;;;;;3.70;76.53;102722.50;5264140;28;20357;-67
2021/04/12 10:35:00;;;;;;;3.67;1.30;;;;;;;3.71;76.73;102721.59;5262793;28;20103;-68
2021/04/12 10:37:47;;;;;;;2.90;1.58;;;;;;;3.60;76.55;102723.66;5262700;28;20044;-67
2021/04/12 10:40:35;;;;;;;3.00;1.60;;;;;;;3.77;77.13;102715.44;5261983;28;20033;-68
2021/04/12 10:43:25;;;;;;;2.63;1.27;;;;;;;3.88;75.67;102711.66;5263308;28;20032;-67
2021/04/12 10:46:03;;;;;;;3.75;1.35;;;;;;;3.99;76.02;102720.91;5260871;28;20028;-67
2021/04/12 10:49:01;;;;;;;3.15;1.50;;;;;;;4.04;75.91;102719.03;5262254;28;20047;-68
2021/04/12 10:51:42;;;;;;;2.78;1.10;;;;;;;4.22;76.29;102707.28;5231091;28;20059;-68
2021/04/12 10:54:32;;;;;;;3.85;1.40;;;;;;;4.29;75.73;102714.00;5246574;28;20379;-68
2021/04/12 10:57:25;;;;;;;3.03;1.50;;;;;;;4.39;75.63;102718.03;5261528;28;20043;-67
2021/04/12 11:00:08;;;;;;;2.78;1.50;;;;;;;4.30;75.53;102713.97;5261593;28;20151;-68
2021/04/12 11:02:49;;;;;;;3.05;1.45;;;;;;;4.24;75.40;102708.94;5263396;28;20044;-68
2021/04/12 11:05:25;;;;;;;3.65;1.50;;;;;;;4.29;74.84;102711.41;5264672;28;20040;-68
2021/04/12 11:08:11;;;;;;;2.85;1.50;;;;;;;4.50;75.64;102715.97;5261533;28;20028;-67
2021/04/12 11:11:16;;;;;;;3.00;1.50;;;;;;;4.73;75.86;102712.69;5262397;28;20112;-68
2021/04/12 11:13:53;;;;;;;3.50;1.55;;;;;;;4.97;75.32;102715.44;5264223;28;20381;-68
2021/04/12 11:16:48;;;;;;;4.10;1.70;;;;;;;5.20;74.77;102714.72;5260017;28;20025;-68
2021/04/12 11:19:25;;;;;;;4.28;1.55;;;;;;;5.25;73.27;102720.59;5259142;28;20041;-68
2021/04/12 11:22:20;;;;;;;3.10;1.65;;;;;;;5.55;75.15;102713.53;5262789;28;20025;-68
2021/04/12 11:25:08;;;;;;;5.40;2.03;;;;;;;5.81;72.92;102710.06;5262616;28;20040;-67
2021/04/12 11:28:03;;;;;;;2.75;1.63;;;;;;;6.00;74.18;102718.09;5261435;28;20320;-68
2021/04/12 11:30:42;;;;;;;2.28;1.40;;;;;;;6.12;73.21;102715.03;5264252;28;20028;-69
2021/04/12 11:33:35;;;;;;;3.08;2.05;;;;;;;6.41;72.65;102714.00;5259019;28;20569;-69
2021/04/12 11:36:44;;;;;;;4.95;2.63;;;;;;;6.56;70.03;102703.00;5266050;28;20533;-69
2021/04/12 11:39:32;;;;;;;3.80;2.63;;;;;;;6.73;70.75;102714.50;5260382;28;20116;-68
2021/04/12 11:42:19;;;;;;;5.80;2.75;;;;;;;6.98;69.44;102707.44;5259847;28;20078;-69
2021/04/12 11:45:15;;;;;;;4.60;2.65;;;;;;;7.25;69.67;102705.47;5263769;28;20036;-69
2021/04/12 11:48:00;;;;;;;3.97;2.60;;;;;;;7.20;68.13;102712.63;5262131;28;20028;-69
2021/04/12 11:51:10;;;;;;;3.97;2.47;;;;;;;7.55;68.60;102715.53;5261152;28;20033;-69
2021/04/12 11:53:52;;;;;;;8.38;2.42;;;;;;;7.16;65.95;102712.78;5264640;28;20533;-68
2021/04/12 11:56:46;;;;;;;5.30;2.60;;;;;;;7.12;66.65;102711.22;5261107;28;20099;-69
2021/04/12 11:59:38;;;;;;;4.45;2.58;;;;;;;7.30;67.71;102711.31;5262910;28;20040;-69
2021/04/12 12:02:27;;;;;;;4.13;2.80;;;;;;;7.44;66.79;102713.38;5258230;28;20406;-69
2021/04/12 12:05:55;;;;;;;4.95;2.40;;;;;;;7.57;65.16;102704.09;5261717;28;20024;-68
2021/04/12 12:08:36;;;;;;;4.00;2.30;;;;;;;7.70;63.35;102712.28;5178616;28;20030;-69
2021/04/12 12:11:23;;;;;;;3.80;2.30;;;;;;;7.61;59.99;102703.97;5182790;28;20093;-70
2021/04/12 12:14:00;;;;;;;4.20;2.67;;;;;;;7.92;61.53;102704.38;5249860;28;20043;-70
2021/04/12 12:16:42;;;;;;;7.18;2.78;;;;;;;8.12;58.44;102705.25;5258599;28;20036;-70
2021/04/12 12:19:36;;;;;;;5.13;2.47;;;;;;;8.47;58.84;102707.13;5242363;28;20044;-69
2021/04/12 12:22:39;;;;;;;3.67;2.30;;;;;;;8.47;58.67;102708.91;5262531;28;20403;-69
2021/04/12 12:25:19;;;;;;;5.38;2.55;;;;;;;8.40;58.50;102704.88;5263951;28;20055;-68
2021/04/12 12:28:15;;;;;;;3.38;2.45;;;;;;;8.25;57.37;102711.59;5263216;28;20061;-69
2021/04/12 12:31:10;;;;;;;3.45;2.20;;;;;;;8.17;56.70;102711.94;5253239;28;20028;-68
2021/04/12 12:33:55;;;;;;;3.45;1.70;;;;;;;8.02;54.48;102717.84;5259950;28;20037;-70
2021/04/12 12:36:39;;;;;;;3.13;2.35;;;;;;;7.81;55.26;102711.81;5262891;28;20044;-70
2021/04/12 12:39:24;;;;;;;3.70;2.00;;;;;;;7.77;53.21;102716.31;5261550;28;20036;-69
2021/04/12 12:42:01;;;;;;;5.30;2.10;;;;;;;7.67;53.84;102720.22;5263295;28;20552;-70
2021/04/12 12:44:34;;;;;;;4.32;2.40;;;;;;;7.95;53.88;102716.41;5261830;28;20164;-70
2021/04/12 12:47:23;;;;;;;4.82;2.42;;;;;;;8.37;54.78;102708.50;5258707;28;20032;-70
2021/04/12 12:50:02;;;;;;;3.97;2.67;;;;;;;8.65;52.63;102707.22;5263708;28;20073;-69
2021/04/12 12:52:45;;;;;;;3.22;2.20;;;;;;;8.74;51.47;102712.84;5261678;28;20050;-67
2021/04/12 12:55:26;;;;;;;3.55;2.35;;;;;;;9.07;54.19;102709.53;5262284;28;20334;-69
2021/04/12 12:58:07;;;;;;;3.38;2.20;;;;;;;9.21;49.72;102714.09;5263526;28;20039;-68
2021/04/12 13:00:42;;;;;;;3.80;2.42;;;;;;;9.06;47.64;102723.53;5266046;28;20032;-68
2021/04/12 13:03:26;;;;;;;3.75;2.70;;;;;;;9.15;50.94;102715.22;5262040;28;20071;-69
2021/04/12 13:06:10;;;;;;;6.57;2.60;;;;;;;8.83;49.81;102711.56;5264253;28;20028;-69
2021/04/12 13:08:52;;;;;;;5.28;2.58;;;;;;;8.87;50.55;102713.13;5265843;28;20513;-69
2021/04/12 13:11:32;;;;;;;3.72;2.33;;;;;;;8.72;48.74;102712.06;5267280;28;20076;-69
2021/04/12 13:14:31;;;;;;;4.70;2.20;;;;;;;8.86;50.07;102710.56;5264067;28;20071;-67
2021/04/12 13:17:31;;;;;;;6.32;2.80;;;;;;;9.09;51.03;102712.94;5257104;28;20028;-68
2021/04/12 13:20:12;;;;;;;4.43;2.30;;;;;;;9.02;49.51;102709.75;5260436;28;20036;-69
2021/04/12 13:22:48;;;;;;;3.95;2.25;;;;;;;8.98;48.62;102717.84;5256238;28;20033;-68
2021/04/12 13:25:46;;;;;;;3.85;2.40;;;;;;;9.12;47.13;102711.91;5241551;28;20450;-68
2021/04/12 13:28:32;;;;;;;3.42;2.17;;;;;;;9.42;47.69;102715.63;5262736;28;20115;-69
2021/04/12 13:31:21;;;;;;;5.28;2.30;;;;;;;9.62;47.35;102708.53;5259349;28;20429;-69